Supadio Airport
WIOO : now visible

Airfield :











YOU CAN JOIN US ON...

 
LOGIN :

Register | Disclaimer

   EN    FR    IT 

 









Legend :    VFR   Marginal VFR   IFR   Intensive IFR   Very Intensive IFR
Visi :
Ceiling :
>= 8 km
>= 3000ft
5 to 8 km
1000 to 3000 ft
1500m to 5 km
500 to 1000 ft
800 to 1500m
200 to 500 ft
< 800m
< 200 ft
Symbols :   Thunderstorms  Fog  Heavy snow  Heavy precipitations  Wind > 20 kt






- Airport Elevation : 10 ft
- IATA code : PNK


WIOO - Supadio

CURRENT METAR :
  • 211600Z 14003KT 6000 FEW012CB SCT013 27/27 Q1008 NOSIG

EXPIRED METARs :
  • 211530Z 13003KT 6000 FEW012CB SCT013 27/27 Q1008 NOSIG
  • 211500Z 14003KT 6000 FEW012CB SCT013 27/27 Q1008 NOSIG
  • 211430Z 14003KT 6000 SCT012 27/27 Q1008 NOSIG
  • 211400Z 16003KT 6000 SCT012 28/27 Q1008 NOSIG
  • 211330Z 17004KT 6000 SCT012 28/28 Q1008 NOSIG
  • 211300Z 15003KT 6000 SCT012 28/28 Q1007 NOSIG
  • 211230Z 13003KT 7000 SCT012 28/28 Q1007 NOSIG
  • 211200Z 10002KT 7000 SCT012 28/28 Q1006 NOSIG
  • 211130Z 16004KT 7000 SCT012 28/27 Q1006 NOSIG
  • 211100Z 24002KT 8000 SCT012 28/27 Q1005 NOSIG

Expired Forecast.
WIIF FIR / Asia



MET'MAP, your aeronautical weather chart ! - Copyright ORBIFLY December 2007 - Disclaimer

ORBIFLY MET'MAP TEAM :

Programming & Development : Alexandra Zaïnal
Original concept : Baudouin d'Aumeries
Technical & hardware support : Manuel Goepfert
Assistance : Marc-Olivier Méhu




SOURCES & CREDITS :

   NOAA       Earth
Advisory